Time;durP1;ratioP1;P1;durP2;ratioP2;P2;SDS_P1;SDS_P2;PMS_P1;PMS_P2;Temp;Humidity;BMP_temperature;BMP_pressure;BME280_temperature;BME280_humidity;BME280_pressure;Samples;Min_cycle;Max_cycle;Signal;HPM_P1;HPM_P2
2021/09/26 00:02:30;;;;;;;20.95;12.78;;;;;;;19.59;90.43;100515.66;2803016;85;21067;-75
2021/09/26 00:06:32;;;;;;;17.60;13.85;;;;;;;19.69;90.02;100518.13;2793350;85;21065;-74
2021/09/26 00:10:33;;;;;;;14.28;12.05;;;;;;;19.79;89.02;100513.30;2890227;82;21481;-79
2021/09/26 00:14:37;;;;;;;18.85;13.93;;;;;;;19.71;88.82;100512.03;2890286;82;20997;-78
2021/09/26 00:18:39;;;;;;;16.73;13.95;;;;;;;19.78;89.38;100510.28;2881360;82;21095;-72
2021/09/26 00:22:40;;;;;;;17.30;12.78;;;;;;;19.87;88.64;100505.66;2861958;83;21066;-74
2021/09/26 00:26:42;;;;;;;17.10;13.28;;;;;;;19.79;88.43;100507.08;2862461;83;21023;-73
2021/09/26 00:30:45;;;;;;;21.85;12.25;;;;;;;19.87;88.91;100511.58;2862249;82;21047;-79
2021/09/26 00:34:47;;;;;;;15.03;13.38;;;;;;;19.94;87.93;100505.27;2861610;83;21007;-75
2021/09/26 00:38:49;;;;;;;16.32;13.32;;;;;;;19.99;87.65;100508.78;2862035;83;21288;-72
2021/09/26 00:42:52;;;;;;;16.35;13.95;;;;;;;20.06;87.19;100504.34;2828542;83;21098;-75
2021/09/26 00:46:54;;;;;;;15.05;13.43;;;;;;;20.08;86.49;100503.65;2801795;84;21264;-75
2021/09/26 00:50:57;;;;;;;15.88;12.58;;;;;;;20.02;86.55;100507.06;2801359;85;21050;-74
2021/09/26 00:54:59;;;;;;;20.57;13.60;;;;;;;19.83;86.66;100507.86;2801960;83;21269;-74
2021/09/26 00:59:01;;;;;;;18.02;13.88;;;;;;;19.76;87.80;100520.41;2801486;82;21062;-71
2021/09/26 01:03:03;;;;;;;19.82;12.33;;;;;;;19.85;87.88;100522.54;2828089;83;21007;-75
2021/09/26 01:07:20;;;;;;;15.88;11.50;;;;;;;19.88;87.62;100524.87;2870464;83;20968;-74
2021/09/26 01:11:39;;;;;;;14.00;11.93;;;;;;;19.89;87.32;100528.42;2870974;82;20999;-76
2021/09/26 01:16:11;;;;;;;15.78;13.40;;;;;;;19.73;87.40;100522.13;2847645;82;21342;-72
2021/09/26 01:20:33;;;;;;;27.48;13.18;;;;;;;19.51;88.34;100524.66;2870698;80;20991;-73
2021/09/26 01:25:09;;;;;;;19.62;13.62;;;;;;;19.40;89.48;100524.55;2870471;83;21062;-73
2021/09/26 01:29:30;;;;;;;21.73;13.08;;;;;;;19.46;90.00;100524.85;2845529;81;21007;-73
2021/09/26 01:33:56;;;;;;;21.48;13.38;;;;;;;19.60;89.92;100526.78;2870259;80;21082;-75
2021/09/26 01:38:12;;;;;;;12.53;11.33;;;;;;;19.68;89.53;100524.02;2870391;83;21087;-79
2021/09/26 01:42:27;;;;;;;18.98;13.00;;;;;;;19.63;88.63;100524.22;2869684;82;21051;-76
2021/09/26 01:46:33;;;;;;;15.90;13.15;;;;;;;19.35;88.88;100528.27;2863355;80;20988;-78
2021/09/26 01:50:37;;;;;;;;;;;;;;;19.20;89.54;100521.98;2862130;80;21043;-70
2021/09/26 01:54:42;;;;;;;17.15;11.60;;;;;;;19.17;90.03;100526.38;2842539;80;20096;-69
2021/09/26 01:58:47;;;;;;;22.40;15.65;;;;;;;19.26;90.21;100530.20;2857125;80;21511;-70
2021/09/26 02:02:51;;;;;;;23.67;16.42;;;;;;;19.39;90.45;100531.46;2832306;82;21061;-70
2021/09/26 02:06:55;;;;;;;26.45;16.00;;;;;;;19.49;89.84;100529.39;2831970;82;21090;-75
2021/09/26 02:10:57;;;;;;;27.48;14.80;;;;;;;19.59;89.30;100535.90;2852953;80;21270;-73
2021/09/26 02:15:02;;;;;;;17.15;12.95;;;;;;;19.58;89.23;100534.72;2869127;82;20983;-72
2021/09/26 02:19:06;;;;;;;21.23;13.63;;;;;;;19.60;89.37;100540.77;2862481;82;20987;-75
2021/09/26 02:23:09;;;;;;;13.40;10.88;;;;;;;19.71;89.33;100541.72;2901661;81;21015;-74
2021/09/26 02:27:12;;;;;;;17.85;11.60;;;;;;;19.70;87.52;100552.18;2901323;82;21007;-76
2021/09/26 02:31:14;;;;;;;16.10;11.50;;;;;;;19.49;87.25;100548.27;2901407;82;21060;-73
2021/09/26 02:35:17;;;;;;;14.45;10.50;;;;;;;19.33;87.93;100553.23;2897772;82;21038;-78
2021/09/26 02:39:19;;;;;;;11.55;10.30;;;;;;;19.26;88.57;100554.97;2892821;81;20987;-74
2021/09/26 02:43:54;;;;;;;17.40;12.00;;;;;;;19.38;89.23;100555.41;2892819;81;21337;-73
2021/09/26 02:48:18;;;;;;;16.10;11.08;;;;;;;19.50;88.34;100548.60;2891612;81;21004;-79
2021/09/26 02:52:22;;;;;;;13.95;11.43;;;;;;;19.55;86.78;100546.20;2892181;81;20992;-77
2021/09/26 02:56:25;;;;;;;15.70;11.93;;;;;;;19.36;87.00;100546.16;2892775;82;21035;-72
2021/09/26 03:00:35;;;;;;;19.87;12.23;;;;;;;19.20;87.79;100551.11;2892467;81;21074;-78
2021/09/26 03:04:45;;;;;;;14.43;11.83;;;;;;;19.11;88.56;100546.80;2893290;81;21065;-78
2021/09/26 03:08:46;;;;;;;16.62;12.60;;;;;;;19.15;89.13;100552.16;2899925;82;21022;-80
2021/09/26 03:12:48;;;;;;;13.98;11.12;;;;;;;19.23;89.10;100552.63;2900273;82;21070;-80
2021/09/26 03:16:51;;;;;;;19.55;13.13;;;;;;;19.26;89.04;100550.43;2900714;82;21002;-78
2021/09/26 03:20:53;;;;;;;17.82;13.68;;;;;;;19.28;88.98;100554.80;2899974;82;21041;-80
2021/09/26 03:24:54;;;;;;;17.25;11.83;;;;;;;19.26;88.86;100557.17;2900209;81;20999;-72
2021/09/26 03:28:56;;;;;;;14.58;11.20;;;;;;;19.22;88.86;100550.42;2900132;82;21046;-78
2021/09/26 03:32:59;;;;;;;17.92;13.32;;;;;;;19.24;88.71;100551.61;2900298;82;21018;-76
2021/09/26 03:37:02;;;;;;;14.05;11.33;;;;;;;19.21;88.94;100544.70;2900740;82;20972;-73
2021/09/26 03:41:04;;;;;;;16.90;12.58;;;;;;;19.20;89.10;100544.90;2900259;82;21042;-79
2021/09/26 03:45:08;;;;;;;15.13;10.90;;;;;;;19.12;88.77;100540.38;2889281;81;21024;-79
2021/09/26 03:49:10;;;;;;;16.20;11.48;;;;;;;18.98;89.09;100533.85;2868491;83;21027;-77
2021/09/26 03:53:12;;;;;;;16.30;11.10;;;;;;;18.82;89.61;100535.59;2868760;83;22053;-76
2021/09/26 03:57:14;;;;;;;17.02;12.50;;;;;;;18.66;90.37;100532.42;2868612;82;20991;-78
2021/09/26 04:01:15;;;;;;;25.35;10.25;;;;;;;18.62;90.81;100534.31;2869122;83;21019;-80
2021/09/26 04:05:17;;;;;;;16.93;12.15;;;;;;;18.62;90.98;100537.83;2869771;83;21634;-74
2021/09/26 04:09:20;;;;;;;17.00;12.95;;;;;;;18.66;90.97;100540.50;2869377;83;21102;-76
2021/09/26 04:13:21;;;;;;;13.13;10.63;;;;;;;18.67;90.65;100540.87;2869138;83;21019;-73
2021/09/26 04:17:23;;;;;;;16.70;11.03;;;;;;;18.65;90.80;100544.73;2869274;83;21043;-76
2021/09/26 04:21:25;;;;;;;17.55;11.50;;;;;;;18.73;91.18;100535.80;2868639;83;21039;-81
2021/09/26 04:25:27;;;;;;;14.05;11.28;;;;;;;18.87;90.98;100535.08;2868657;83;21494;-78
2021/09/26 04:29:29;;;;;;;16.82;11.90;;;;;;;19.03;90.19;100537.38;2869150;83;21043;-76
2021/09/26 04:33:31;;;;;;;14.55;11.53;;;;;;;19.08;89.77;100543.11;2868948;83;21035;-82
2021/09/26 04:37:33;;;;;;;14.53;11.05;;;;;;;18.98;88.93;100544.63;2868592;83;21043;-79
2021/09/26 04:41:36;;;;;;;14.80;10.25;;;;;;;18.90;89.86;100548.20;2868210;83;21039;-81
2021/09/26 04:45:38;;;;;;;13.80;11.03;;;;;;;18.96;89.62;100548.84;2882249;81;21053;-78
2021/09/26 04:49:40;;;;;;;22.52;14.25;;;;;;;18.82;89.38;100556.30;2903799;81;21515;-79
2021/09/26 04:53:42;;;;;;;21.55;13.95;;;;;;;18.66;89.98;100554.50;2903958;81;21069;-80
2021/09/26 04:57:45;;;;;;;20.52;14.80;;;;;;;18.56;90.57;100553.34;2903599;81;21058;-80
2021/09/26 05:01:47;;;;;;;21.95;12.25;;;;;;;18.45;91.26;100548.30;2903078;81;21014;-77
2021/09/26 05:05:50;;;;;;;20.27;14.35;;;;;;;18.37;91.77;100556.74;2893372;82;21049;-79
2021/09/26 05:09:51;;;;;;;14.73;12.75;;;;;;;18.34;92.16;100557.09;2893526;82;21061;-75
2021/09/26 05:13:53;;;;;;;22.40;12.28;;;;;;;18.36;92.29;100565.84;2893210;82;21044;-79
2021/09/26 05:17:56;;;;;;;14.03;10.58;;;;;;;18.36;92.33;100556.91;2893541;82;20986;-78
2021/09/26 05:21:58;;;;;;;14.38;11.95;;;;;;;18.34;92.63;100563.83;2893530;82;21059;-77
2021/09/26 05:26:00;;;;;;;14.90;11.38;;;;;;;18.35;92.88;100564.16;2893344;82;20992;-78
2021/09/26 05:30:02;;;;;;;14.93;11.65;;;;;;;18.39;92.77;100570.88;2893236;82;21012;-80
2021/09/26 05:34:05;;;;;;;14.50;9.33;;;;;;;18.44;92.71;100572.21;2893513;82;21034;-81
2021/09/26 05:38:06;;;;;;;12.40;10.80;;;;;;;18.45;92.80;100573.41;2893217;82;21047;-78
2021/09/26 05:42:08;;;;;;;17.37;11.68;;;;;;;18.47;92.83;100564.64;2893187;82;21004;-75
2021/09/26 05:46:10;;;;;;;13.53;10.60;;;;;;;18.48;92.83;100569.53;2893061;82;21036;-80
2021/09/26 05:50:14;;;;;;;13.25;10.55;;;;;;;18.50;92.93;100570.20;2893408;80;21036;-81
2021/09/26 05:54:17;;;;;;;13.53;11.10;;;;;;;18.58;93.04;100567.48;2881751;82;21023;-79
2021/09/26 05:58:22;;;;;;;12.95;10.05;;;;;;;18.62;92.91;100570.16;2855770;83;21026;-80
2021/09/26 06:02:24;;;;;;;13.85;10.43;;;;;;;18.67;93.09;100565.12;2835027;83;21094;-78
2021/09/26 06:06:26;;;;;;;16.82;11.75;;;;;;;18.76;92.89;100570.47;2799561;83;21070;-74
2021/09/26 06:10:28;;;;;;;18.92;12.40;;;;;;;18.88;92.38;100574.48;2807531;83;21027;-77
2021/09/26 06:14:32;;;;;;;14.83;10.75;;;;;;;19.06;91.49;100574.27;2841151;83;21038;-79
2021/09/26 06:18:34;;;;;;;11.85;10.35;;;;;;;19.30;90.42;100574.34;2852050;83;21523;-78
2021/09/26 06:22:36;;;;;;;12.58;11.20;;;;;;;19.45;90.50;100572.55;2852989;83;21014;-74
2021/09/26 06:26:38;;;;;;;11.68;9.70;;;;;;;19.68;89.15;100577.98;2800730;85;21073;-79
2021/09/26 06:30:41;;;;;;;12.55;9.83;;;;;;;19.95;88.91;100584.41;2800852;85;21026;-74
2021/09/26 06:34:45;;;;;;;13.40;10.43;;;;;;;20.28;86.43;100581.95;2815495;83;21039;-76
2021/09/26 06:38:51;;;;;;;9.28;8.38;;;;;;;20.48;85.37;100579.05;2841361;82;21021;-74
2021/09/26 06:42:53;;;;;;;12.37;10.05;;;;;;;20.63;83.98;100584.98;2842589;83;21001;-74
2021/09/26 06:46:56;;;;;;;12.13;9.45;;;;;;;20.84;83.82;100585.65;2891236;81;21015;-74
2021/09/26 06:50:58;;;;;;;12.15;10.03;;;;;;;21.07;83.05;100580.64;2905413;80;21046;-72
2021/09/26 06:55:03;;;;;;;9.23;8.03;;;;;;;21.27;81.99;100586.30;2906070;81;21080;-74
2021/09/26 06:59:05;;;;;;;16.00;10.48;;;;;;;21.48;80.25;100581.95;2905825;81;21030;-73
2021/09/26 07:03:08;;;;;;;11.40;8.48;;;;;;;21.54;80.08;100590.16;2904828;80;21042;-70
2021/09/26 07:07:10;;;;;;;9.50;8.58;;;;;;;21.70;78.97;100593.69;2905665;81;21054;-71
2021/09/26 07:11:11;;;;;;;13.65;9.73;;;;;;;21.86;77.29;100595.83;2902240;81;21015;-72
2021/09/26 07:15:13;;;;;;;10.40;8.15;;;;;;;21.98;77.51;100596.97;2898567;80;21046;-69
2021/09/26 07:36:15;;;;;;;9.35;8.03;;;;;;;22.18;76.06;100611.22;2867445;80;21003;-65
2021/09/26 08:16:54;;;;;;;9.85;8.95;;;;;;;22.91;73.08;100629.12;2857826;81;21063;-63
2021/09/26 08:20:56;;;;;;;7.95;6.65;;;;;;;23.21;72.32;100627.48;2898924;82;21039;-64
2021/09/26 08:25:00;;;;;;;7.40;6.55;;;;;;;23.45;70.47;100626.17;2899060;82;20995;-64
2021/09/26 08:29:04;;;;;;;7.25;6.12;;;;;;;23.63;69.87;100622.06;2877354;82;34602;-64
2021/09/26 08:33:37;;;;;;;6.72;5.65;;;;;;;23.66;70.05;100619.75;2899031;82;20991;-64
2021/09/26 08:37:40;;;;;;;4.65;4.35;;;;;;;23.73;70.32;100623.84;2816276;84;20973;-62
2021/09/26 08:41:43;;;;;;;6.30;5.62;;;;;;;23.74;69.50;100630.95;2792705;84;20975;-64
2021/09/26 08:45:49;;;;;;;6.58;5.97;;;;;;;23.71;69.91;100623.22;2792084;85;21030;-64
2021/09/26 08:50:29;;;;;;;6.75;5.65;;;;;;;23.71;70.44;100623.22;2791154;84;21044;-64
2021/09/26 08:54:32;;;;;;;6.42;5.37;;;;;;;23.69;70.41;100625.30;2791983;84;21003;-64
2021/09/26 09:04:38;;;;;;;17.75;11.48;;;;;;;23.70;70.17;100625.62;2790895;85;21007;-64
2021/09/26 09:08:41;;;;;;;11.57;7.85;;;;;;;23.73;70.11;100618.41;2744391;84;20999;-63
2021/09/26 09:13:43;;;;;;;9.63;7.12;;;;;;;23.85;69.21;100623.25;2792136;85;21043;-63
2021/09/26 09:17:46;;;;;;;13.28;5.95;;;;;;;23.93;69.63;100621.69;2793947;84;21090;-62
2021/09/26 09:22:11;;;;;;;8.58;5.40;;;;;;;24.16;69.48;100615.05;2782588;85;21026;-65
2021/09/26 09:26:32;;;;;;;5.15;4.35;;;;;;;24.28;69.28;100606.61;2858584;83;21334;-66
2021/09/26 09:30:42;;;;;;;8.38;5.62;;;;;;;24.46;68.28;100609.22;2804653;84;21022;-63
2021/09/26 09:34:54;;;;;;;6.75;4.92;;;;;;;24.51;68.00;100605.33;2852168;83;21023;-66
2021/09/26 09:39:00;;;;;;;6.00;5.40;;;;;;;24.60;67.95;100608.16;2844200;83;21362;-63
2021/09/26 09:56:27;;;;;;;4.53;3.98;;;;;;;25.04;65.46;100587.27;2788858;81;66311;-79
2021/09/26 10:00:34;;;;;;;4.17;3.77;;;;;;;25.30;64.24;100589.05;2792722;82;21058;-80
2021/09/26 10:04:45;;;;;;;3.98;3.67;;;;;;;25.51;64.33;100597.44;2790980;83;21074;-73
2021/09/26 10:09:19;;;;;;;6.67;4.08;;;;;;;25.67;62.42;100595.27;2884442;79;70472;-66
2021/09/26 10:13:24;;;;;;;2.65;2.22;;;;;;;25.73;62.70;100595.73;2946711;80;21015;-63
2021/09/26 10:25:41;;;;;;;24.77;16.65;;;;;;;25.87;61.25;100590.21;2846645;81;21019;-73
2021/09/26 10:38:17;;;;;;;4.58;4.17;;;;;;;25.44;61.23;100578.92;2846842;80;68356;-70
2021/09/26 10:42:22;;;;;;;6.92;5.40;;;;;;;25.35;61.17;100577.48;2872542;82;21030;-70
2021/09/26 10:46:29;;;;;;;4.47;3.15;;;;;;;25.29;60.97;100585.16;2869658;82;21011;-68
2021/09/26 10:50:37;;;;;;;2.17;1.90;;;;;;;25.30;61.66;100582.23;2868104;80;20954;-69
2021/09/26 10:54:40;;;;;;;2.02;1.80;;;;;;;25.23;61.00;100581.42;2859654;82;21022;-77
2021/09/26 10:58:56;;;;;;;6.35;2.30;;;;;;;25.21;61.04;100583.01;2853637;82;20963;-72
2021/09/26 11:03:11;;;;;;;3.08;2.00;;;;;;;25.17;60.45;100580.42;2858574;80;20987;-75
2021/09/26 11:20:58;;;;;;;2.12;1.55;;;;;;;25.25;60.44;100561.61;2836864;80;68256;-73
2021/09/26 11:25:00;;;;;;;3.85;1.92;;;;;;;25.39;58.96;100556.42;2803384;82;21048;-72
2021/09/26 11:29:02;;;;;;;3.95;1.37;;;;;;;25.47;59.59;100553.16;2833541;81;21040;-73
2021/09/26 11:33:07;;;;;;;2.15;1.92;;;;;;;25.58;57.92;100546.20;2835019;81;21048;-75
2021/09/26 11:37:12;;;;;;;1.67;1.05;;;;;;;25.81;57.25;100551.05;2842234;81;21028;-72
2021/09/26 11:41:14;;;;;;;1.50;1.25;;;;;;;25.96;56.41;100545.30;2849387;81;20961;-70
2021/09/26 11:45:19;;;;;;;2.85;2.00;;;;;;;26.06;57.30;100544.80;2836192;81;20949;-69
2021/09/26 11:49:20;;;;;;;1.30;1.12;;;;;;;26.00;56.79;100536.98;2824506;81;20993;-68
2021/09/26 11:53:24;;;;;;;1.47;1.37;;;;;;;25.95;55.25;100538.19;2826529;81;21020;-79
2021/09/26 11:57:26;;;;;;;1.25;1.12;;;;;;;25.81;56.11;100547.81;2835628;81;20988;-69
2021/09/26 12:01:41;;;;;;;1.77;1.60;;;;;;;25.89;56.97;100539.05;2827518;81;21016;-70
2021/09/26 12:05:43;;;;;;;4.47;3.25;;;;;;;26.12;56.24;100536.23;2841309;81;21025;-77
2021/09/26 12:09:51;;;;;;;2.12;1.77;;;;;;;26.38;57.06;100529.22;2852631;79;21141;31
2021/09/26 12:13:57;;;;;;;2.55;2.35;;;;;;;26.45;56.98;100528.30;2833428;83;21015;-68
2021/09/26 12:26:47;;;;;;;3.80;2.08;;;;;;;25.95;57.36;100525.92;2891950;80;21060;-62
2021/09/26 12:30:53;;;;;;;2.52;2.33;;;;;;;25.68;55.64;100523.38;2855691;82;20973;-67
2021/09/26 12:34:57;;;;;;;2.12;1.92;;;;;;;25.56;58.01;100526.53;2947455;78;20917;-63
2021/09/26 12:39:21;;;;;;;1.95;1.75;;;;;;;25.76;57.74;100526.38;2947269;80;20941;-64
2021/09/26 12:43:27;;;;;;;2.98;2.33;;;;;;;25.98;58.02;100517.30;2920909;80;20925;-64
2021/09/26 12:47:31;;;;;;;4.47;2.15;;;;;;;26.02;57.83;100515.78;2906711;81;20920;-66
2021/09/26 12:51:50;;;;;;;1.62;1.20;;;;;;;26.10;58.02;100500.50;2857277;80;20928;-67
2021/09/26 12:55:55;;;;;;;2.52;1.90;;;;;;;26.12;56.18;100500.80;2856139;80;20952;-62
2021/09/26 13:12:33;;;;;;;4.10;1.80;;;;;;;25.86;56.80;100498.63;2883444;80;71049;-77
2021/09/26 13:16:46;;;;;;;2.47;1.98;;;;;;;25.87;57.20;100502.51;2870926;80;21041;-75
2021/09/26 13:20:50;;;;;;;1.72;1.32;;;;;;;25.87;57.82;100500.30;2879812;80;21025;-76
2021/09/26 15:25:22;;;;;;;4.53;4.12;;;;;;;24.77;63.00;100445.91;2943209;78;21062;-62
2021/09/26 15:29:24;;;;;;;4.03;3.72;;;;;;;24.65;62.66;100441.11;2898312;81;20976;-64
2021/09/26 15:33:27;;;;;;;3.35;2.72;;;;;;;24.53;63.29;100442.31;2889009;80;20977;-65
2021/09/26 15:37:48;;;;;;;5.33;4.00;;;;;;;24.44;63.78;100433.25;2893673;78;20940;-62
2021/09/26 15:41:50;;;;;;;4.72;3.92;;;;;;;24.35;64.17;100433.46;2938429;78;21028;-61
2021/09/26 15:46:03;;;;;;;4.92;4.08;;;;;;;24.26;64.64;100432.04;2962496;79;21005;-61
2021/09/26 15:50:09;;;;;;;3.55;3.25;;;;;;;24.18;64.75;100439.08;2998444;78;20979;-61
2021/09/26 15:54:10;;;;;;;4.37;3.98;;;;;;;24.07;65.39;100436.45;3003688;79;20903;-61
2021/09/26 15:58:13;;;;;;;6.20;5.35;;;;;;;23.95;65.83;100440.31;3007287;79;20988;-63
2021/09/26 16:02:15;;;;;;;4.60;4.17;;;;;;;23.84;66.31;100439.07;2853506;78;68910;-74
2021/09/26 16:06:18;;;;;;;6.58;5.05;;;;;;;23.71;66.88;100441.81;2818481;83;21021;-69
2021/09/26 16:10:23;;;;;;;4.12;3.72;;;;;;;23.58;67.30;100438.05;2846125;83;21029;-74
2021/09/26 16:14:24;;;;;;;5.00;3.50;;;;;;;23.49;67.88;100441.48;2849522;80;21030;-68
2021/09/26 16:18:27;;;;;;;4.25;3.95;;;;;;;23.37;68.23;100449.91;2805837;85;21026;-68
2021/09/26 16:22:28;;;;;;;6.87;5.80;;;;;;;23.28;68.56;100456.59;2806025;80;21039;-79
2021/09/26 16:26:30;;;;;;;5.08;4.58;;;;;;;23.17;68.78;100449.33;2797655;83;20987;-67
2021/09/26 16:30:33;;;;;;;6.28;5.67;;;;;;;23.07;68.93;100442.94;2805344;84;20995;-76
2021/09/26 16:34:35;;;;;;;6.58;5.97;;;;;;;22.96;69.31;100435.42;2805289;85;21015;-70
2021/09/26 16:38:37;;;;;;;4.87;4.47;;;;;;;22.84;69.54;100433.82;2806428;82;21042;-72
2021/09/26 16:42:39;;;;;;;6.85;4.87;;;;;;;22.76;69.62;100438.91;2806640;81;20994;-73
2021/09/26 16:46:41;;;;;;;5.62;4.78;;;;;;;22.62;70.14;100442.09;2803903;84;21361;-68
2021/09/26 16:50:48;;;;;;;15.50;5.75;;;;;;;22.48;70.83;100453.89;2790404;82;21038;-72
2021/09/26 16:54:50;;;;;;;10.88;6.97;;;;;;;22.35;71.63;100446.50;2805164;80;21042;-70
2021/09/26 16:58:52;;;;;;;7.25;6.37;;;;;;;22.24;72.46;100454.67;2806068;80;21062;-69
2021/09/26 17:02:56;;;;;;;10.43;8.50;;;;;;;22.11;73.20;100452.19;2801914;83;21029;-70
2021/09/26 17:06:57;;;;;;;11.30;8.58;;;;;;;22.00;73.91;100454.08;2799463;82;20992;-70
2021/09/26 17:19:20;;;;;;;8.05;6.92;;;;;;;21.62;76.54;100461.16;2825018;80;66805;-68
2021/09/26 17:23:23;;;;;;;9.18;7.22;;;;;;;21.53;77.33;100458.58;2811358;84;21650;-70
2021/09/26 17:27:25;;;;;;;8.48;6.92;;;;;;;21.43;78.07;100452.67;2747889;86;21021;-67
2021/09/26 17:31:27;;;;;;;10.32;6.80;;;;;;;21.31;78.49;100450.97;2840583;84;21082;-74
2021/09/26 17:35:33;;;;;;;7.62;6.33;;;;;;;21.09;79.47;100464.47;2840786;84;21602;-74
2021/09/26 17:39:35;;;;;;;7.85;7.12;;;;;;;20.93;80.14;100465.55;2852673;82;20959;-74
2021/09/26 17:43:39;;;;;;;8.15;7.42;;;;;;;20.79;80.78;100462.33;2890198;82;20963;-74
2021/09/26 17:47:41;;;;;;;10.85;8.23;;;;;;;20.71;81.00;100469.20;2890177;82;20978;-76
2021/09/26 17:51:43;;;;;;;9.68;6.97;;;;;;;20.58;81.55;100472.04;2890375;82;21006;-70
2021/09/26 17:55:47;;;;;;;8.63;6.78;;;;;;;20.43;82.10;100461.25;2888457;82;21353;-82
2021/09/26 17:59:48;;;;;;;14.80;9.35;;;;;;;20.34;82.76;100461.00;2890619;79;21027;-69
2021/09/26 18:12:11;;;;;;;11.05;6.65;;;;;;;20.29;83.65;100475.58;2890748;79;67813;-71
2021/09/26 18:16:18;;;;;;;8.93;7.90;;;;;;;20.31;83.50;100482.48;2912900;81;21061;-73
2021/09/26 18:20:25;;;;;;;9.95;6.80;;;;;;;20.29;83.45;100485.89;2913423;80;20989;-72
2021/09/26 18:24:27;;;;;;;8.30;6.47;;;;;;;20.31;83.22;100495.14;2890643;81;21016;-70
2021/09/26 18:28:30;;;;;;;13.90;8.00;;;;;;;20.23;83.08;100490.16;2911530;81;20982;-73
2021/09/26 18:32:32;;;;;;;8.13;7.08;;;;;;;20.22;83.00;100497.09;2913528;81;21005;-70
2021/09/26 18:36:34;;;;;;;7.72;6.92;;;;;;;20.22;82.74;100491.69;2913635;81;20977;-82
2021/09/26 18:40:37;;;;;;;10.25;6.75;;;;;;;20.22;82.56;100491.69;2913241;81;21014;-78
2021/09/26 18:44:39;;;;;;;8.75;7.53;;;;;;;20.21;82.71;100500.31;2913394;81;20963;-70
2021/09/26 18:48:42;;;;;;;10.88;7.75;;;;;;;20.18;83.06;100499.84;2904620;80;20959;-76
2021/09/26 18:52:44;;;;;;;9.98;7.45;;;;;;;20.09;83.27;100498.58;2911590;80;21760;-73
2021/09/26 18:56:47;;;;;;;8.00;6.90;;;;;;;20.00;83.57;100498.31;2878497;81;21044;-82
2021/09/26 19:00:50;;;;;;;7.08;6.37;;;;;;;19.98;83.62;100501.70;2890297;81;21114;-72
2021/09/26 19:04:52;;;;;;;9.43;7.08;;;;;;;19.97;83.40;100501.37;2913622;81;21025;-80
2021/09/26 19:08:54;;;;;;;8.18;6.70;;;;;;;19.94;83.24;100497.70;2914092;79;21013;-81
2021/09/26 19:12:56;;;;;;;9.25;6.40;;;;;;;19.90;83.13;100496.36;2952231;80;21086;-76
2021/09/26 19:16:58;;;;;;;9.50;6.50;;;;;;;19.93;82.71;100494.14;2912204;80;21014;-79
2021/09/26 19:21:01;;;;;;;9.25;6.50;;;;;;;19.82;82.99;100485.13;2905019;82;21049;-74
2021/09/26 19:25:05;;;;;;;11.22;4.60;;;;;;;19.77;83.03;100480.79;2870535;80;20949;-76
2021/09/26 19:29:07;;;;;;;9.03;5.90;;;;;;;19.69;83.04;100485.21;2857379;83;20978;-78
2021/09/26 19:33:10;;;;;;;7.83;5.15;;;;;;;19.68;82.89;100501.08;2869440;82;21010;-77
2021/09/26 19:37:11;;;;;;;6.25;5.67;;;;;;;19.68;82.58;100499.73;2895635;82;21003;-79
2021/09/26 19:41:15;;;;;;;7.67;4.15;;;;;;;19.66;82.21;100498.25;2904321;80;21698;-70
2021/09/26 19:45:21;;;;;;;4.55;4.12;;;;;;;19.66;81.84;100490.98;2864724;82;21439;-74
2021/09/26 19:49:23;;;;;;;4.95;4.15;;;;;;;19.63;81.67;100487.80;2877070;80;20955;-71
2021/09/26 20:19:11;;;;;;;8.83;4.55;;;;;;;19.32;80.42;100496.80;2824068;82;21147;-77
2021/09/26 20:23:12;;;;;;;7.22;4.65;;;;;;;19.26;80.38;100494.30;2807134;83;21067;-76
2021/09/26 20:27:15;;;;;;;5.75;3.52;;;;;;;19.24;80.36;100490.94;2760331;85;21000;-70
2021/09/26 20:31:19;;;;;;;9.85;4.47;;;;;;;19.21;80.34;100490.77;2818743;83;21019;-80
2021/09/26 20:35:24;;;;;;;5.00;3.72;;;;;;;19.19;80.33;100483.38;2820659;84;21003;-74
2021/09/26 20:39:25;;;;;;;3.42;3.10;;;;;;;19.18;80.22;100486.27;2802083;84;21067;-77
2021/09/26 20:43:27;;;;;;;4.03;3.67;;;;;;;19.09;80.30;100488.17;2809364;83;21011;-78
2021/09/26 20:47:29;;;;;;;4.35;3.72;;;;;;;19.07;80.44;100491.55;2809481;84;21460;-74
2021/09/26 20:51:31;;;;;;;4.30;3.40;;;;;;;19.04;80.52;100498.13;2795698;83;21071;-75
2021/09/26 20:55:33;;;;;;;8.68;4.95;;;;;;;19.02;80.61;100495.27;2817978;84;20975;-77
2021/09/26 20:59:35;;;;;;;6.50;4.22;;;;;;;18.97;80.75;100497.95;2809035;84;21037;-75
2021/09/26 21:03:37;;;;;;;6.00;4.58;;;;;;;18.93;80.85;100503.87;2827442;84;21008;-77
2021/09/26 21:07:40;;;;;;;5.45;4.40;;;;;;;18.89;81.08;100502.05;2827490;84;21035;-76
2021/09/26 21:11:43;;;;;;;5.30;4.83;;;;;;;18.84;81.34;100501.71;2827154;83;21016;-81
2021/09/26 21:15:47;;;;;;;4.80;4.30;;;;;;;18.84;81.53;100497.67;2813701;83;21052;-76
2021/09/26 21:19:50;;;;;;;4.92;4.20;;;;;;;18.82;81.64;100495.66;2824807;83;21018;-77
2021/09/26 21:23:52;;;;;;;5.97;4.67;;;;;;;18.77;81.88;100493.52;2808065;85;21674;-75
2021/09/26 21:27:55;;;;;;;10.18;5.22;;;;;;;18.77;81.97;100490.82;2812146;82;21034;-75
2021/09/26 21:31:58;;;;;;;6.67;5.03;;;;;;;18.74;82.08;100498.41;2825856;82;20995;-81
2021/09/26 21:36:00;;;;;;;7.37;6.03;;;;;;;18.65;82.39;100496.25;2825056;82;20979;-78
2021/09/26 21:40:05;;;;;;;5.62;4.92;;;;;;;18.57;82.77;100494.41;2820193;83;21051;-81
2021/09/26 21:44:07;;;;;;;5.87;4.77;;;;;;;18.55;83.00;100491.06;2769376;85;21043;-81
2021/09/26 21:48:09;;;;;;;6.65;4.40;;;;;;;18.49;83.19;100495.28;2812460;82;21031;-77
2021/09/26 21:52:10;;;;;;;7.15;5.17;;;;;;;18.48;83.33;100494.95;2791182;85;20988;-77
2021/09/26 21:56:13;;;;;;;6.80;4.58;;;;;;;18.45;83.46;100491.75;2790872;85;21015;-77
2021/09/26 22:00:35;;;;;;;6.47;5.12;;;;;;;18.43;83.54;100492.43;2791121;85;21023;-77
2021/09/26 22:04:36;;;;;;;6.65;5.35;;;;;;;18.40;83.57;100480.99;2790921;85;21063;-80
2021/09/26 22:08:40;;;;;;;5.62;4.75;;;;;;;18.38;83.70;100481.67;2791005;85;21054;-84
2021/09/26 22:12:42;;;;;;;6.03;5.20;;;;;;;18.35;83.82;100479.33;2790947;85;21013;-71
2021/09/26 22:16:43;;;;;;;8.15;6.65;;;;;;;18.32;84.01;100482.38;2790841;84;21071;-78
2021/09/26 22:20:56;;;;;;;7.55;5.22;;;;;;;18.26;84.26;100471.78;2801934;82;21007;-77
2021/09/26 22:24:58;;;;;;;6.60;5.47;;;;;;;18.20;84.52;100473.83;2812769;82;20975;-80
2021/09/26 22:29:02;;;;;;;12.25;7.40;;;;;;;18.17;84.84;100470.10;2805349;84;20996;-81
2021/09/26 22:33:07;;;;;;;7.37;5.42;;;;;;;18.13;85.05;100460.20;2797856;82;21123;-72
2021/09/26 22:37:09;;;;;;;7.85;5.30;;;;;;;18.11;85.22;100458.68;2844592;82;20971;-80
2021/09/26 22:41:15;;;;;;;9.65;6.85;;;;;;;18.06;85.54;100463.22;2864255;82;20979;-80
2021/09/26 22:45:18;;;;;;;9.13;6.45;;;;;;;18.01;85.80;100454.80;2848893;81;21039;-76
2021/09/26 22:49:20;;;;;;;7.92;6.35;;;;;;;17.99;86.09;100458.17;2853731;81;21030;-73
2021/09/26 22:53:22;;;;;;;9.53;7.25;;;;;;;17.83;86.46;100456.34;2840945;82;21079;-77
2021/09/26 22:57:24;;;;;;;11.28;5.50;;;;;;;17.76;87.02;100451.28;2860088;81;21034;-72
2021/09/26 23:01:31;;;;;;;7.40;6.28;;;;;;;17.77;87.30;100443.06;2829181;82;21071;-84
2021/09/26 23:05:33;;;;;;;8.95;7.12;;;;;;;17.79;87.24;100443.73;2812573;82;21062;-79
2021/09/26 23:09:35;;;;;;;17.82;7.97;;;;;;;17.78;87.29;100442.54;2838331;82;21007;-80
2021/09/26 23:13:38;;;;;;;10.35;8.45;;;;;;;17.78;87.34;100436.67;2848873;82;21059;-82
2021/09/26 23:17:39;;;;;;;9.43;7.90;;;;;;;17.74;87.27;100427.27;2857409;81;21023;-80
2021/09/26 23:21:41;;;;;;;10.50;7.72;;;;;;;17.69;87.69;100429.63;2861718;81;21022;-74
2021/09/26 23:25:43;;;;;;;10.20;7.85;;;;;;;17.68;87.87;100441.37;2853936;81;21022;-78
2021/09/26 23:29:45;;;;;;;9.13;6.33;;;;;;;17.66;88.11;100443.39;2847929;82;21044;-73
2021/09/26 23:33:47;;;;;;;9.80;7.95;;;;;;;17.66;88.23;100450.11;2850381;81;21011;-78
2021/09/26 23:37:51;;;;;;;9.15;7.40;;;;;;;17.60;88.12;100448.11;2848039;82;21007;-69